»·PEaware :: N351SS KSNA-KSMO

N351SS :: KSNA-KSMO

FLIGHT INFORMATION

Flight Status: Arrived
Operator: Privately registered:
United States
More flights under this callsign
Pilot: Reuben K. (13591)
Aircraft: CESSNA 206 STATIONAIR
(C206)
More flights by this aircraft type
Origin: KSNA John Wayne-Orange Co
United States
Destination: KSMO Santa Monica Mun
United States
More flights between these airports :: More routes between these airports
Route: CSTP9
File this flight plan on PilotEdge
Remarks: I-4 rating
Altitude:
(Current/Filed)
6,000ft
Speed:
(Current/Filed)
140kts
Departed: 08-Feb-20 07:22 PM
Arrived: 08-Feb-20 07:54 PM
Distance/Time
Traveled:
35nm/0:31
Distance/Time
To Go:
Arrived

Flight Plot

Page will automatically refresh every two minutes.

Flight plan parsing failed; only flown route is shown


Map Options




Map Legend


Flown Route
Filed Route
Departure Airport
Arrival Airport
Navaid (VOR, NDB)
Fix

Horizontal Profiles

Position Reports

Time Latitude Longitude Heading Altitude Ground
Speed
08-Feb-20 18:37 33.676080 -117.870909 219 60ft 0kts
08-Feb-20 18:38 33.676080 -117.870909 219 60ft 0kts
08-Feb-20 18:39 33.676080 -117.870909 219 60ft 0kts
08-Feb-20 18:40 33.676080 -117.870909 219 60ft 0kts
08-Feb-20 18:41 33.676080 -117.870909 219 60ft 0kts
08-Feb-20 18:42 33.676080 -117.870909 219 60ft 0kts
08-Feb-20 18:43 33.676080 -117.870909 219 60ft 0kts
08-Feb-20 18:44 33.676080 -117.870909 219 60ft 0kts
08-Feb-20 18:45 33.676080 -117.870909 219 60ft 0kts
08-Feb-20 18:46 33.676080 -117.870909 219 60ft 0kts
08-Feb-20 18:47 33.676080 -117.870909 219 60ft 0kts
08-Feb-20 18:48 33.676080 -117.870909 219 60ft 0kts
08-Feb-20 18:49 33.676080 -117.870909 219 60ft 0kts
08-Feb-20 18:50 33.676080 -117.870909 219 60ft 0kts
08-Feb-20 18:51 33.676080 -117.870909 219 60ft 0kts
08-Feb-20 18:52 33.676080 -117.870909 219 60ft 0kts
08-Feb-20 18:53 33.676080 -117.870909 219 60ft 0kts
08-Feb-20 18:54 33.676080 -117.870909 219 60ft 0kts
08-Feb-20 18:55 33.676080 -117.870909 219 60ft 0kts
08-Feb-20 18:56 33.676080 -117.870909 219 60ft 0kts
08-Feb-20 18:57 33.676080 -117.870909 219 60ft 0kts
08-Feb-20 18:58 33.676080 -117.870909 219 60ft 0kts
08-Feb-20 18:59 33.676080 -117.870909 219 60ft 0kts
08-Feb-20 19:00 33.676080 -117.870909 219 60ft 0kts
08-Feb-20 19:01 33.676080 -117.870909 219 60ft 0kts
08-Feb-20 19:02 33.676080 -117.870909 219 60ft 0kts
08-Feb-20 19:03 33.676080 -117.870909 219 60ft 0kts
08-Feb-20 19:04 33.676080 -117.870909 219 60ft 0kts
08-Feb-20 19:05 33.676080 -117.870909 219 60ft 0kts
08-Feb-20 19:06 33.676080 -117.870909 219 60ft 0kts
08-Feb-20 19:07 33.676080 -117.870909 219 60ft 0kts
08-Feb-20 19:08 33.676080 -117.870909 219 60ft 0kts
08-Feb-20 19:09 33.676080 -117.870909 219 60ft 0kts
08-Feb-20 19:10 33.676080 -117.870909 219 60ft 0kts
08-Feb-20 19:11 33.676080 -117.870909 219 60ft 0kts
08-Feb-20 19:12 33.676080 -117.870909 219 60ft 0kts
08-Feb-20 19:13 33.676080 -117.870909 219 60ft 0kts
08-Feb-20 19:14 33.676080 -117.870909 219 60ft 0kts
08-Feb-20 19:15 33.676080 -117.870909 219 60ft 0kts
08-Feb-20 19:16 33.676080 -117.870909 219 60ft 0kts
08-Feb-20 19:17 33.676543 -117.869759 24 60ft 10kts
08-Feb-20 19:18 33.679739 -117.867920 19 60ft 12kts
08-Feb-20 19:19 33.681257 -117.866530 112 60ft 0kts
08-Feb-20 19:20 33.681257 -117.866530 112 60ft 0kts
08-Feb-20 19:21 33.679745 -117.866272 205 60ft 46kts
08-Feb-20 19:22 33.653901 -117.883581 218 1196ft 117kts
08-Feb-20 19:23 33.636381 -117.916356 254 2752ft 122kts
08-Feb-20 19:24 33.645667 -117.954536 337 3972ft 140kts
08-Feb-20 19:25 33.682428 -117.942057 21 5255ft 125kts
08-Feb-20 19:26 33.717246 -117.925144 21 5994ft 160kts
08-Feb-20 19:27 33.761378 -117.903625 21 5991ft 175kts
08-Feb-20 19:28 33.804677 -117.882486 21 5987ft 151kts
08-Feb-20 19:29 33.832452 -117.851027 68 5990ft 139kts
08-Feb-20 19:30 33.845416 -117.807111 71 5991ft 140kts
08-Feb-20 19:31 33.870845 -117.780391 357 5991ft 140kts
08-Feb-20 19:32 33.909839 -117.783586 356 5990ft 140kts
08-Feb-20 19:33 33.948884 -117.786021 356 5990ft 140kts
08-Feb-20 19:34 33.987955 -117.788455 356 5990ft 140kts
08-Feb-20 19:35 34.017644 -117.811231 289 5991ft 140kts
08-Feb-20 19:36 34.028119 -117.856585 284 5990ft 140kts
08-Feb-20 19:37 34.039372 -117.901901 286 5996ft 140kts
08-Feb-20 19:38 34.050824 -117.946871 287 6000ft 140kts
08-Feb-20 19:39 34.064398 -117.991058 291 6000ft 140kts
08-Feb-20 19:40 34.078525 -118.035234 291 6000ft 140kts
08-Feb-20 19:41 34.092612 -118.079266 291 6000ft 140kts
08-Feb-20 19:42 34.106756 -118.123456 291 6000ft 140kts
08-Feb-20 19:43 34.119304 -118.167889 267 5998ft 140kts
08-Feb-20 19:44 34.114418 -118.213984 262 5577ft 124kts
08-Feb-20 19:45 34.109902 -118.253829 262 4940ft 118kts
08-Feb-20 19:46 34.105480 -118.292850 262 4240ft 117kts
08-Feb-20 19:47 34.095503 -118.329039 232 3597ft 114kts
08-Feb-20 19:48 34.077717 -118.356593 240 3394ft 88kts
08-Feb-20 19:49 34.066130 -118.382591 247 2855ft 92kts
08-Feb-20 19:50 34.051848 -118.409026 225 2136ft 97kts
08-Feb-20 19:51 34.032745 -118.431278 226 932ft 94kts
08-Feb-20 19:52 34.016123 -118.451016 228 141ft 45kts
08-Feb-20 19:53 34.014169 -118.452305 151 134ft 3kts
08-Feb-20 19:54 34.012678 -118.453422 72 127ft 6kts
08-Feb-20 19:55 34.013184 -118.452893 130 129ft 0kts

Navigation Log

Ident Type
Flight plan parsing failed, navigation log unavailable